首页
METAR-TAF:

METAR-TAF

机场 :

图卢兹-布拉尼亚克机场

圖盧茲, 法国

纬度: 43-38N, 经度: 001-22E, 海拔: 152米

当前天气观测

该预报发布于36分钟前的18:30 UTC
风速6节,风向西北
温度 10°C
湿度 66%
气压 1033 hPa
能见度10公里或以上
1500米以下无云,无积雨云

METAR: LFBO 181830Z AUTO 31006KT CAVOK 10/04 Q1033 NOSIG

时间: 20:06 (19:06 UTC)

预报

该预报发布于2小时和6分钟前的17:00 UTC
预报有效从18日的 18点(UTC)到 19日的 24点(UTC)
风速10节,风向西北
能见度10公里或以上
1500米以下无云,无积雨云
成为
从 19日的 05点(UTC)到 19日的 07点(UTC)
风速10节,风向西

TAF: LFBO 181700Z 1818/1924 32010KT CAVOK BECMG 1905/1907 26010KT

超过4000个机场的气象观测和天气预报(METAR&TAF报告)。

可查询的气象台以黄色和红色小点在地图上表示。

将鼠标移到小点上方,可查看气象台名称。

然后点击查看天气观测和预报。

如需切换地图:点击带黑十字的绿色按钮放大地图;点击带横线的绿色按钮缩小地图;或者点击绿色箭头查看邻近地区的地图。


METAR-TAF: